Time;durP1;ratioP1;P1;durP2;ratioP2;P2;SDS_P1;SDS_P2;PMS_P1;PMS_P2;Temp;Humidity;BMP_temperature;BMP_pressure;BME280_temperature;BME280_humidity;BME280_pressure;Samples;Min_cycle;Max_cycle;Signal;HPM_P1;HPM_P2
2023/08/18 00:00:52;;;;;;;;;;;;;;;;;;5069435;28;20333;-59
2023/08/18 00:03:18;;;;;;;;;;;;;;;;;;5056827;28;19924;-60
2023/08/18 00:05:44;;;;;;;;;;;;;;;;;;5055096;28;19917;-60
2023/08/18 00:08:10;;;;;;;;;;;;;;;;;;5067628;28;19959;-60
2023/08/18 00:10:36;;;;;;;;;;;;;;;;;;5065087;28;19912;-60
2023/08/18 00:13:02;;;;;;;;;;;;;;;;;;5065957;28;19912;-59
2023/08/18 00:15:28;;;;;;;;;;;;;;;;;;5062164;28;20386;-59
2023/08/18 00:17:54;;;;;;;;;;;;;;;;;;5070976;28;19912;-60
2023/08/18 00:20:20;;;;;;;;;;;;;;;;;;5057462;28;19971;-59
2023/08/18 00:22:46;;;;;;;;;;;;;;;;;;5052912;28;20012;-59
2023/08/18 00:25:12;;;;;;;;;;;;;;;;;;5067254;28;19912;-60
2023/08/18 00:27:38;;;;;;;;;;;;;;;;;;5073322;28;20352;-61
2023/08/18 00:30:05;;;;;;;;;;;;;;;;;;5072880;28;19917;-61
2023/08/18 00:32:31;;;;;;;;;;;;;;;;;;5071802;28;20427;-62
2023/08/18 00:34:57;;;;;;;;;;;;;;;;;;5072926;28;20337;-61
2023/08/18 00:37:23;;;;;;;;;;;;;;;;;;5068178;28;19958;-59
2023/08/18 00:39:49;;;;;;;;;;;;;;;;;;5062825;28;19995;-59
2023/08/18 00:42:15;;;;;;;;;;;;;;;;;;5059088;28;20490;-60
2023/08/18 00:44:41;;;;;;;;;;;;;;;;;;5069821;28;19913;-62
2023/08/18 00:47:07;;;;;;;;;;;;;;;;;;5061553;28;20358;-59
2023/08/18 00:49:32;;;;;;;;;;;;;;;;;;5065521;28;19927;-59
2023/08/18 00:51:58;;;;;;;;;;;;;;;;;;5063604;28;19951;-61
2023/08/18 00:54:24;;;;;;;;;;;;;;;;;;5069788;28;20007;-60
2023/08/18 00:56:50;;;;;;;;;;;;;;;;;;5059726;28;20376;-59
2023/08/18 00:59:16;;;;;;;;;;;;;;;;;;5066007;28;20015;-60
2023/08/18 01:01:42;;;;;;;;;;;;;;;;;;5062125;28;19924;-64
2023/08/18 01:04:08;;;;;;;;;;;;;;;;;;5072730;28;20379;-64
2023/08/18 01:06:34;;;;;;;;;;;;;;;;;;5072090;28;20041;-64
2023/08/18 01:09:00;;;;;;;;;;;;;;;;;;5070580;28;19966;-65
2023/08/18 01:11:26;;;;;;;;;;;;;;;;;;5057208;28;19979;-64
2023/08/18 01:13:52;;;;;;;;;;;;;;;;;;5056334;28;19913;-65
2023/08/18 01:16:18;;;;;;;;;;;;;;;;;;5055734;28;19912;-65
2023/08/18 01:18:44;;;;;;;;;;;;;;;;;;5057277;28;19947;-64
2023/08/18 01:21:09;;;;;;;;;;;;;;;;;;5066242;28;19917;-64
2023/08/18 01:23:36;;;;;;;;;;;;;;;;;;5072478;28;20704;-64
2023/08/18 01:26:01;;;;;;;;;;;;;;;;;;5071465;28;19955;-64
2023/08/18 01:28:27;;;;;;;;;;;;;;;;;;5062267;28;19913;-64
2023/08/18 01:30:53;;;;;;;;;;;;;;;;;;5051958;28;20377;-64
2023/08/18 01:33:19;;;;;;;;;;;;;;;;;;5066433;28;19946;-63
2023/08/18 01:35:45;;;;;;;;;;;;;;;;;;5072143;28;20283;-64
2023/08/18 01:38:11;;;;;;;;;;;;;;;;;;5070534;28;19916;-64
2023/08/18 01:40:37;;;;;;;;;;;;;;;;;;5054550;28;19915;-64
2023/08/18 01:43:03;;;;;;;;;;;;;;;;;;5066548;28;19964;-64
2023/08/18 01:45:29;;;;;;;;;;;;;;;;;;5066061;28;19916;-64
2023/08/18 01:47:55;;;;;;;;;;;;;;;;;;5063059;28;19941;-64
2023/08/18 01:50:21;;;;;;;;;;;;;;;;;;5054262;28;21068;-64
2023/08/18 01:52:47;;;;;;;;;;;;;;;;;;5065869;28;19917;-64
2023/08/18 01:55:13;;;;;;;;;;;;;;;;;;5052250;28;19912;-64
2023/08/18 01:57:39;;;;;;;;;;;;;;;;;;5062263;28;20062;-64
2023/08/18 02:00:05;;;;;;;;;;;;;;;;;;5065533;28;20379;-64
2023/08/18 02:02:31;;;;;;;;;;;;;;;;;;5063652;28;19917;-64
2023/08/18 02:04:57;;;;;;;;;;;;;;;;;;5051916;28;20295;-64
2023/08/18 02:07:22;;;;;;;;;;;;;;;;;;5070663;28;19924;-71
2023/08/18 02:09:48;;;;;;;;;;;;;;;;;;5057284;28;19916;-70
2023/08/18 02:12:14;;;;;;;;;;;;;;;;;;5060542;28;19982;-71
2023/08/18 02:14:40;;;;;;;;;;;;;;;;;;5061313;28;19912;-70
2023/08/18 02:17:06;;;;;;;;;;;;;;;;;;5056571;28;19917;-71
2023/08/18 02:19:32;;;;;;;;;;;;;;;;;;5069854;28;20007;-71
2023/08/18 02:21:58;;;;;;;;;;;;;;;;;;5068926;28;20288;-70
2023/08/18 02:24:24;;;;;;;;;;;;;;;;;;5058044;28;20384;-71
2023/08/18 02:26:50;;;;;;;;;;;;;;;;;;5074168;28;19909;-70
2023/08/18 02:29:16;;;;;;;;;;;;;;;;;;5074838;28;19912;-67
2023/08/18 02:31:41;;;;;;;;;;;;;;;;;;5073298;28;19922;-70
2023/08/18 02:34:07;;;;;;;;;;;;;;;;;;5058566;28;19923;-63
2023/08/18 02:36:33;;;;;;;;;;;;;;;;;;5064031;28;19970;-71
2023/08/18 02:38:59;;;;;;;;;;;;;;;;;;5075151;28;19909;-71
2023/08/18 02:41:25;;;;;;;;;;;;;;;;;;5074646;28;20034;-70
2023/08/18 02:43:51;;;;;;;;;;;;;;;;;;5055743;28;19909;-71
2023/08/18 02:46:17;;;;;;;;;;;;;;;;;;5072893;28;19913;-70
2023/08/18 02:48:43;;;;;;;;;;;;;;;;;;5074623;28;19963;-71
2023/08/18 02:51:09;;;;;;;;;;;;;;;;;;5074469;28;20454;-71
2023/08/18 02:53:35;;;;;;;;;;;;;;;;;;5073888;28;19916;-71
2023/08/18 02:56:00;;;;;;;;;;;;;;;;;;5066771;28;19927;-71
2023/08/18 02:58:27;;;;;;;;;;;;;;;;;;5075108;28;19999;-71
2023/08/18 03:00:53;;;;;;;;;;;;;;;;;;5057613;28;19921;-71
2023/08/18 03:03:19;;;;;;;;;;;;;;;;;;5066792;28;20318;-70
2023/08/18 03:05:45;;;;;;;;;;;;;;;;;;5057617;28;19919;-71
2023/08/18 03:08:11;;;;;;;;;;;;;;;;;;5063714;28;20002;-71
2023/08/18 03:10:37;;;;;;;;;;;;;;;;;;5061995;28;20404;-71
2023/08/18 03:13:03;;;;;;;;;;;;;;;;;;5056732;28;19948;-71
2023/08/18 03:15:29;;;;;;;;;;;;;;;;;;5058633;28;19986;-70
2023/08/18 03:17:55;;;;;;;;;;;;;;;;;;5079718;28;19998;-59
2023/08/18 03:20:21;;;;;;;;;;;;;;;;;;5063143;28;19957;-59
2023/08/18 03:22:47;;;;;;;;;;;;;;;;;;5071769;28;20015;-60
2023/08/18 03:25:13;;;;;;;;;;;;;;;;;;5062192;28;19917;-59
2023/08/18 03:27:39;;;;;;;;;;;;;;;;;;5058840;28;19912;-60
2023/08/18 03:30:05;;;;;;;;;;;;;;;;;;5070646;28;20319;-62
2023/08/18 03:32:31;;;;;;;;;;;;;;;;;;5074413;28;19966;-60
2023/08/18 03:34:57;;;;;;;;;;;;;;;;;;5064829;28;19916;-60
2023/08/18 03:37:23;;;;;;;;;;;;;;;;;;5073094;28;19951;-59
2023/08/18 03:39:49;;;;;;;;;;;;;;;;;;5072461;28;19917;-60
2023/08/18 03:42:15;;;;;;;;;;;;;;;;;;5067488;28;19917;-59
2023/08/18 03:44:41;;;;;;;;;;;;;;;;;;5068530;28;19920;-61
2023/08/18 03:47:07;;;;;;;;;;;;;;;;;;5056273;28;20411;-59
2023/08/18 03:49:33;;;;;;;;;;;;;;;;;;5066269;28;19915;-59
2023/08/18 03:51:58;;;;;;;;;;;;;;;;;;5072040;28;20295;-60
2023/08/18 03:54:24;;;;;;;;;;;;;;;;;;5067859;28;20359;-60
2023/08/18 03:56:50;;;;;;;;;;;;;;;;;;5058970;28;19927;-64
2023/08/18 03:59:16;;;;;;;;;;;;;;;;;;5052527;28;19935;-60
2023/08/18 04:01:42;;;;;;;;;;;;;;;;;;5055405;28;19964;-60
2023/08/18 04:04:08;;;;;;;;;;;;;;;;;;5060905;28;19952;-59
2023/08/18 04:06:34;;;;;;;;;;;;;;;;;;5072859;28;19969;-60
2023/08/18 04:09:00;;;;;;;;;;;;;;;;;;5072355;28;19912;-59
2023/08/18 04:11:26;;;;;;;;;;;;;;;;;;5068430;28;19974;-59
2023/08/18 04:13:52;;;;;;;;;;;;;;;;;;5064209;28;20372;-60
2023/08/18 04:16:17;;;;;;;;;;;;;;;;;;5063551;28;20017;-59
2023/08/18 04:18:43;;;;;;;;;;;;;;;;;;5071141;28;20015;-59
2023/08/18 04:21:09;;;;;;;;;;;;;;;;;;5072033;28;19916;-60
2023/08/18 04:23:35;;;;;;;;;;;;;;;;;;5072235;28;19970;-59
2023/08/18 04:26:01;;;;;;;;;;;;;;;;;;5069850;28;20364;-59
2023/08/18 04:28:27;;;;;;;;;;;;;;;;;;5071580;28;19923;-69
2023/08/18 04:30:53;;;;;;;;;;;;;;;;;;5063686;28;20364;-71
2023/08/18 04:33:19;;;;;;;;;;;;;;;;;;5069910;28;20019;-70
2023/08/18 04:35:45;;;;;;;;;;;;;;;;;;5072196;28;19913;-71
2023/08/18 04:38:13;;;;;;;;;;;;;;;;;;5071218;28;19916;-70
2023/08/18 04:40:39;;;;;;;;;;;;;;;;;;5066664;28;20027;-69
2023/08/18 04:43:05;;;;;;;;;;;;;;;;;;5060111;28;20419;-71
2023/08/18 04:45:31;;;;;;;;;;;;;;;;;;5056646;28;19965;-69
2023/08/18 04:47:57;;;;;;;;;;;;;;;;;;5066746;28;20011;-70
2023/08/18 04:50:23;;;;;;;;;;;;;;;;;;5066015;28;20367;-71
2023/08/18 04:52:49;;;;;;;;;;;;;;;;;;5071769;28;19932;-71
2023/08/18 04:55:15;;;;;;;;;;;;;;;;;;5071891;28;19961;-70
2023/08/18 04:57:41;;;;;;;;;;;;;;;;;;5071612;28;19913;-70
2023/08/18 05:00:08;;;;;;;;;;;;;;;;;;5068177;28;20584;-71
2023/08/18 05:02:34;;;;;;;;;;;;;;;;;;5054922;28;19924;-71
2023/08/18 05:05:00;;;;;;;;;;;;;;;;;;5060949;28;19925;-70
2023/08/18 05:07:26;;;;;;;;;;;;;;;;;;5071549;28;19959;-71
2023/08/18 05:09:52;;;;;;;;;;;;;;;;;;5062364;28;19913;-71
2023/08/18 05:12:20;;;;;;;;;;;;;;;;;;5059252;28;19913;-71
2023/08/18 05:14:45;;;;;;;;;;;;;;;;;;5071715;28;19908;-70
2023/08/18 05:17:11;;;;;;;;;;;;;;;;;;5067730;28;20017;-71
2023/08/18 05:19:37;;;;;;;;;;;;;;;;;;5067812;28;19917;-70
2023/08/18 05:22:03;;;;;;;;;;;;;;;;;;5069431;28;19924;-70
2023/08/18 05:24:29;;;;;;;;;;;;;;;;;;5063841;28;19913;-70
2023/08/18 05:26:55;;;;;;;;;;;;;;;;;;5066037;28;19955;-71
2023/08/18 05:29:21;;;;;;;;;;;;;;;;;;5071634;28;20336;-70
2023/08/18 05:31:47;;;;;;;;;;;;;;;;;;5071110;28;19964;-71
2023/08/18 05:34:13;;;;;;;;;;;;;;;;;;5067213;28;19916;-69
2023/08/18 05:36:39;;;;;;;;;;;;;;;;;;5068977;28;19927;-70
2023/08/18 05:39:05;;;;;;;;;;;;;;;;;;5062549;28;19912;-70
2023/08/18 05:41:31;;;;;;;;;;;;;;;;;;5059352;28;19916;-70
2023/08/18 05:43:57;;;;;;;;;;;;;;;;;;5061453;28;19924;-67
2023/08/18 05:46:23;;;;;;;;;;;;;;;;;;5063306;28;19920;-65
2023/08/18 05:48:48;;;;;;;;;;;;;;;;;;5068255;28;19944;-70
2023/08/18 05:51:14;;;;;;;;;;;;;;;;;;5057559;28;19927;-68
2023/08/18 05:53:40;;;;;;;;;;;;;;;;;;5067707;28;19916;-67
2023/08/18 05:56:06;;;;;;;;;;;;;;;;;;5065347;28;19936;-70
2023/08/18 05:58:32;;;;;;;;;;;;;;;;;;5056477;28;19913;-70
2023/08/18 06:00:58;;;;;;;;;;;;;;;;;;5069944;28;19968;-70
2023/08/18 06:03:24;;;;;;;;;;;;;;;;;;5066551;28;19963;-70
2023/08/18 06:05:50;;;;;;;;;;;;;;;;;;5067275;28;19937;-70
2023/08/18 06:08:16;;;;;;;;;;;;;;;;;;5067336;28;19951;-69
2023/08/18 06:10:42;;;;;;;;;;;;;;;;;;5070894;28;19921;-69
2023/08/18 06:13:08;;;;;;;;;;;;;;;;;;5069246;28;19966;-69
2023/08/18 06:15:34;;;;;;;;;;;;;;;;;;5070241;28;20057;-70
2023/08/18 06:17:59;;;;;;;;;;;;;;;;;;5062044;28;20042;-70
2023/08/18 06:20:25;;;;;;;;;;;;;;;;;;5071931;28;20384;-70
2023/08/18 06:22:51;;;;;;;;;;;;;;;;;;5068163;28;19929;-69
2023/08/18 06:25:17;;;;;;;;;;;;;;;;;;5072725;28;20413;-70
2023/08/18 06:27:43;;;;;;;;;;;;;;;;;;5070426;28;19986;-70
2023/08/18 06:30:11;;;;;;;;;;;;;;;;;;5073891;28;19943;-70
2023/08/18 06:32:36;;;;;;;;;;;;;;;;;;5073745;28;19912;-70
2023/08/18 06:35:02;;;;;;;;;;;;;;;;;;5066103;28;19951;-69
2023/08/18 06:37:28;;;;;;;;;;;;;;;;;;5067679;28;20380;-70
2023/08/18 06:39:54;;;;;;;;;;;;;;;;;;5069992;28;19920;-67
2023/08/18 06:42:20;;;;;;;;;;;;;;;;;;5058765;28;19983;-70
2023/08/18 06:44:46;;;;;;;;;;;;;;;;;;5066416;28;20108;-70
2023/08/18 06:47:12;;;;;;;;;;;;;;;;;;5062843;28;20390;-65
2023/08/18 06:49:38;;;;;;;;;;;;;;;;;;5071108;28;19912;-63
2023/08/18 06:52:04;;;;;;;;;;;;;;;;;;5065530;28;20007;-64
2023/08/18 06:54:30;;;;;;;;;;;;;;;;;;5063535;28;19952;-63
2023/08/18 06:56:55;;;;;;;;;;;;;;;;;;5068472;28;20275;-64
2023/08/18 06:59:22;;;;;;;;;;;;;;;;;;5069042;28;19916;-64
2023/08/18 07:01:47;;;;;;;;;;;;;;;;;;5061602;28;20043;-63
2023/08/18 07:04:13;;;;;;;;;;;;;;;;;;5072274;28;20011;-63
2023/08/18 07:06:39;;;;;;;;;;;;;;;;;;5070302;28;20392;-63
2023/08/18 07:09:05;;;;;;;;;;;;;;;;;;5071385;28;20395;-64
2023/08/18 07:11:31;;;;;;;;;;;;;;;;;;5058970;28;19955;-64
2023/08/18 07:13:57;;;;;;;;;;;;;;;;;;5067233;28;19912;-63
2023/08/18 07:16:23;;;;;;;;;;;;;;;;;;5064985;28;19952;-63
2023/08/18 07:18:49;;;;;;;;;;;;;;;;;;5070291;28;19912;-64
2023/08/18 07:21:15;;;;;;;;;;;;;;;;;;5066382;28;20402;-64
2023/08/18 07:23:41;;;;;;;;;;;;;;;;;;5065282;28;19927;-64
2023/08/18 07:26:07;;;;;;;;;;;;;;;;;;5071973;28;19912;-64
2023/08/18 07:28:33;;;;;;;;;;;;;;;;;;5064632;28;20027;-64
2023/08/18 07:30:58;;;;;;;;;;;;;;;;;;5067978;28;19913;-63
2023/08/18 07:33:25;;;;;;;;;;;;;;;;;;5060187;28;20330;-64
2023/08/18 07:35:50;;;;;;;;;;;;;;;;;;5065234;28;19997;-64
2023/08/18 07:38:17;;;;;;;;;;;;;;;;;;5067349;28;20000;-64
2023/08/18 07:40:43;;;;;;;;;;;;;;;;;;5067763;28;19931;-64
2023/08/18 07:43:09;;;;;;;;;;;;;;;;;;5066232;28;19990;-64
2023/08/18 07:45:35;;;;;;;;;;;;;;;;;;5071424;28;20050;-64
2023/08/18 07:48:00;;;;;;;;;;;;;;;;;;5073208;28;19909;-64
2023/08/18 07:50:26;;;;;;;;;;;;;;;;;;5069602;28;19938;-64
2023/08/18 07:52:52;;;;;;;;;;;;;;;;;;5061124;28;19923;-64
2023/08/18 07:55:18;;;;;;;;;;;;;;;;;;5072945;28;19916;-64
2023/08/18 07:57:44;;;;;;;;;;;;;;;;;;5068327;28;19952;-64
2023/08/18 08:00:16;;;;;;;;;;;;;;;;;;5063908;28;20336;-64
2023/08/18 08:02:42;;;;;;;;;;;;;;;;;;5067345;28;20031;-64
2023/08/18 08:05:07;;;;;;;;;;;;;;;;;;5065516;28;20000;-64
2023/08/18 08:07:33;;;;;;;;;;;;;;;;;;5072609;28;19913;-64
2023/08/18 08:10:03;;;;;;;;;;;;;;;;;;5065654;28;20007;-64
2023/08/18 08:12:29;;;;;;;;;;;;;;;;;;5060667;28;20021;-64
2023/08/18 08:14:54;;;;;;;;;;;;;;;;;;5054750;28;19997;-64
2023/08/18 08:17:20;;;;;;;;;;;;;;;;;;5062504;28;19943;-64
2023/08/18 08:19:46;;;;;;;;;;;;;;;;;;5062410;28;20382;-64
2023/08/18 08:22:12;;;;;;;;;;;;;;;;;;5061301;28;19925;-64
2023/08/18 08:24:38;;;;;;;;;;;;;;;;;;5056356;28;20020;-65
2023/08/18 08:27:04;;;;;;;;;;;;;;;;;;5065909;28;20281;-64
2023/08/18 08:29:30;;;;;;;;;;;;;;;;;;5064590;28;19964;-62
2023/08/18 08:31:56;;;;;;;;;;;;;;;;;;5060626;28;19947;-64
2023/08/18 08:34:22;;;;;;;;;;;;;;;;;;5065894;28;20039;-64
2023/08/18 08:36:48;;;;;;;;;;;;;;;;;;5059195;28;20291;-64
2023/08/18 08:39:14;;;;;;;;;;;;;;;;;;5061914;28;19920;-64
2023/08/18 08:41:39;;;;;;;;;;;;;;;;;;5064977;28;19975;-64
2023/08/18 08:44:05;;;;;;;;;;;;;;;;;;5067275;28;19966;-64
2023/08/18 08:46:31;;;;;;;;;;;;;;;;;;5058427;28;19917;-64
2023/08/18 08:48:57;;;;;;;;;;;;;;;;;;5061928;28;19959;-64
2023/08/18 08:51:23;;;;;;;;;;;;;;;;;;5063150;28;19952;-64
2023/08/18 08:53:49;;;;;;;;;;;;;;;;;;5059847;28;19940;-64
2023/08/18 08:56:15;;;;;;;;;;;;;;;;;;5062864;28;20387;-64
2023/08/18 08:58:41;;;;;;;;;;;;;;;;;;5055197;28;19959;-65
2023/08/18 09:01:07;;;;;;;;;;;;;;;;;;5054644;28;20414;-64
2023/08/18 09:03:33;;;;;;;;;;;;;;;;;;5065802;28;20011;-64
2023/08/18 09:05:58;;;;;;;;;;;;;;;;;;5061990;28;19960;-65
2023/08/18 09:08:24;;;;;;;;;;;;;;;;;;5057832;28;20007;-61
2023/08/18 09:10:50;;;;;;;;;;;;;;;;;;5069112;28;19986;-60
2023/08/18 09:13:16;;;;;;;;;;;;;;;;;;5070516;28;20049;-60
2023/08/18 09:15:44;;;;;;;;;;;;;;;;;;5070471;28;19916;-60
2023/08/18 09:18:10;;;;;;;;;;;;;;;;;;5067648;28;19920;-61
2023/08/18 09:20:36;;;;;;;;;;;;;;;;;;5067095;28;19952;-60
2023/08/18 09:23:02;;;;;;;;;;;;;;;;;;5061615;28;20037;-61
2023/08/18 09:25:28;;;;;;;;;;;;;;;;;;5064509;28;19944;-60
2023/08/18 09:27:53;;;;;;;;;;;;;;;;;;5067382;28;19916;-61
2023/08/18 09:30:19;;;;;;;;;;;;;;;;;;5066552;28;20388;-61
2023/08/18 09:32:45;;;;;;;;;;;;;;;;;;5067216;28;19955;-61
2023/08/18 09:35:11;;;;;;;;;;;;;;;;;;5072038;28;20382;-60
2023/08/18 09:37:37;;;;;;;;;;;;;;;;;;5073698;28;19959;-61
2023/08/18 09:40:03;;;;;;;;;;;;;;;;;;5076337;28;19967;-60
2023/08/18 09:42:29;;;;;;;;;;;;;;;;;;5074379;28;19962;-61
2023/08/18 09:44:55;;;;;;;;;;;;;;;;;;5070578;28;19923;-62
2023/08/18 09:47:21;;;;;;;;;;;;;;;;;;5074099;28;19996;-60
2023/08/18 09:49:47;;;;;;;;;;;;;;;;;;5066023;28;19934;-62
2023/08/18 09:52:14;;;;;;;;;;;;;;;;;;5072773;28;20257;-61
2023/08/18 09:54:40;;;;;;;;;;;;;;;;;;5071213;28;19912;-61
2023/08/18 09:57:06;;;;;;;;;;;;;;;;;;5073464;28;19950;-61
2023/08/18 09:59:33;;;;;;;;;;;;;;;;;;5071549;28;19924;-65
2023/08/18 10:01:59;;;;;;;;;;;;;;;;;;5070075;28;19927;-61
2023/08/18 10:04:25;;;;;;;;;;;;;;;;;;5070362;28;21661;-61
2023/08/18 10:06:52;;;;;;;;;;;;;;;;;;5067734;28;19954;-63
2023/08/18 10:09:18;;;;;;;;;;;;;;;;;;5067931;28;19927;-60
2023/08/18 10:11:44;;;;;;;;;;;;;;;;;;5074100;28;20014;-61
2023/08/18 10:14:10;;;;;;;;;;;;;;;;;;5071471;28;20042;-61
2023/08/18 10:16:36;;;;;;;;;;;;;;;;;;5073899;28;20370;-61
2023/08/18 10:19:02;;;;;;;;;;;;;;;;;;5070528;28;20017;-63
2023/08/18 10:21:28;;;;;;;;;;;;;;;;;;5074433;28;19917;-64
2023/08/18 10:23:54;;;;;;;;;;;;;;;;;;5069575;28;19963;-63
2023/08/18 10:26:20;;;;;;;;;;;;;;;;;;5062244;28;20007;-63
2023/08/18 10:28:46;;;;;;;;;;;;;;;;;;5067886;28;19912;-63
2023/08/18 10:31:12;;;;;;;;;;;;;;;;;;5069499;28;20338;-63
2023/08/18 10:33:39;;;;;;;;;;;;;;;;;;5066887;28;19921;-64
2023/08/18 10:36:05;;;;;;;;;;;;;;;;;;5068116;28;19997;-63
2023/08/18 10:38:30;;;;;;;;;;;;;;;;;;5073279;28;19959;-63
2023/08/18 10:40:56;;;;;;;;;;;;;;;;;;5068058;28;19948;-64
2023/08/18 10:43:22;;;;;;;;;;;;;;;;;;5068080;28;19930;-64
2023/08/18 10:45:48;;;;;;;;;;;;;;;;;;5074782;28;20008;-63
2023/08/18 10:48:14;;;;;;;;;;;;;;;;;;5063866;28;19923;-63
2023/08/18 10:50:41;;;;;;;;;;;;;;;;;;5070659;28;19963;-63
2023/08/18 10:53:11;;;;;;;;;;;;;;;;;;5066790;28;19917;-64
2023/08/18 10:55:37;;;;;;;;;;;;;;;;;;5064324;28;20020;-62
2023/08/18 10:58:03;;;;;;;;;;;;;;;;;;5070509;28;19947;-62
2023/08/18 11:00:29;;;;;;;;;;;;;;;;;;5051258;28;20604;-62
2023/08/18 11:02:55;;;;;;;;;;;;;;;;;;5063606;28;20376;-62
2023/08/18 11:05:21;;;;;;;;;;;;;;;;;;5066854;28;19951;-62
2023/08/18 11:07:47;;;;;;;;;;;;;;;;;;5066949;28;19912;-62
2023/08/18 11:10:13;;;;;;;;;;;;;;;;;;5069045;28;19940;-61
2023/08/18 11:12:40;;;;;;;;;;;;;;;;;;5068299;28;20399;-63
2023/08/18 11:15:06;;;;;;;;;;;;;;;;;;5067026;28;19920;-63
2023/08/18 11:17:31;;;;;;;;;;;;;;;;;;5070479;28;20394;-63
2023/08/18 11:19:58;;;;;;;;;;;;;;;;;;5068544;28;19968;-63
2023/08/18 11:22:24;;;;;;;;;;;;;;;;;;5066317;28;19924;-63
2023/08/18 11:24:50;;;;;;;;;;;;;;;;;;5061088;28;20366;-63
2023/08/18 11:27:15;;;;;;;;;;;;;;;;;;5061902;28;19967;-60
2023/08/18 11:29:41;;;;;;;;;;;;;;;;;;5063342;28;20420;-60
2023/08/18 11:32:07;;;;;;;;;;;;;;;;;;5057182;28;19923;-61
2023/08/18 11:34:33;;;;;;;;;;;;;;;;;;5071589;28;20288;-61
2023/08/18 11:36:59;;;;;;;;;;;;;;;;;;5069222;28;19913;-61
2023/08/18 11:39:25;;;;;;;;;;;;;;;;;;5071619;28;19912;-60
2023/08/18 11:41:52;;;;;;;;;;;;;;;;;;5070135;28;19912;-61
2023/08/18 11:44:18;;;;;;;;;;;;;;;;;;5067108;28;20343;-61
2023/08/18 11:46:45;;;;;;;;;;;;;;;;;;5074328;28;19963;-61
2023/08/18 11:49:11;;;;;;;;;;;;;;;;;;5063916;28;19912;-61
2023/08/18 11:51:37;;;;;;;;;;;;;;;;;;5068383;28;19985;-62
2023/08/18 11:54:04;;;;;;;;;;;;;;;;;;5070154;28;19960;-60
2023/08/18 11:56:31;;;;;;;;;;;;;;;;;;5060935;28;19995;-60
2023/08/18 11:58:57;;;;;;;;;;;;;;;;;;5067373;28;19923;-62
2023/08/18 12:01:23;;;;;;;;;;;;;;;;;;5062733;28;19912;-60
2023/08/18 12:03:49;;;;;;;;;;;;;;;;;;5057692;28;20022;-60
2023/08/18 12:06:15;;;;;;;;;;;;;;;;;;5056046;28;20415;-60
2023/08/18 12:08:41;;;;;;;;;;;;;;;;;;5066397;28;19952;-60
2023/08/18 12:11:07;;;;;;;;;;;;;;;;;;5067439;28;19916;-61
2023/08/18 12:13:33;;;;;;;;;;;;;;;;;;5063124;28;20414;-61
2023/08/18 12:15:59;;;;;;;;;;;;;;;;;;5066808;28;19913;-60
2023/08/18 12:18:25;;;;;;;;;;;;;;;;;;5065492;28;19948;-62
2023/08/18 12:20:51;;;;;;;;;;;;;;;;;;5058790;28;19952;-61
2023/08/18 12:23:17;;;;;;;;;;;;;;;;;;5066236;28;19936;-62
2023/08/18 12:25:43;;;;;;;;;;;;;;;;;;5067601;28;19948;-61
2023/08/18 12:28:09;;;;;;;;;;;;;;;;;;5066293;28;19940;-62
2023/08/18 12:30:35;;;;;;;;;;;;;;;;;;5059827;28;19917;-62
2023/08/18 12:33:01;;;;;;;;;;;;;;;;;;5056878;28;19975;-63
2023/08/18 12:35:26;;;;;;;;;;;;;;;;;;5066892;28;19917;-62
2023/08/18 12:37:53;;;;;;;;;;;;;;;;;;5060403;28;19960;-68
2023/08/18 12:40:19;;;;;;;;;;;;;;;;;;5065507;28;19913;-68
2023/08/18 12:42:45;;;;;;;;;;;;;;;;;;5068989;28;19970;-69
2023/08/18 12:45:11;;;;;;;;;;;;;;;;;;5065933;28;19920;-69
2023/08/18 12:47:37;;;;;;;;;;;;;;;;;;5063379;28;20054;-69
2023/08/18 12:50:03;;;;;;;;;;;;;;;;;;5062394;28;20002;-69
2023/08/18 12:52:29;;;;;;;;;;;;;;;;;;5069314;28;20365;-68
2023/08/18 12:54:55;;;;;;;;;;;;;;;;;;5062996;28;19917;-67
2023/08/18 12:57:21;;;;;;;;;;;;;;;;;;5063143;28;19951;-69
2023/08/18 12:59:46;;;;;;;;;;;;;;;;;;5071468;28;19961;-67
2023/08/18 13:02:12;;;;;;;;;;;;;;;;;;5066952;28;19916;-66
2023/08/18 13:04:38;;;;;;;;;;;;;;;;;;5061354;28;20007;-67
2023/08/18 13:07:04;;;;;;;;;;;;;;;;;;5061326;28;19923;-68
2023/08/18 13:09:30;;;;;;;;;;;;;;;;;;5064934;28;20271;-68
2023/08/18 13:11:56;;;;;;;;;;;;;;;;;;5051145;28;19917;-67
2023/08/18 13:14:22;;;;;;;;;;;;;;;;;;5060511;28;19955;-66
2023/08/18 13:16:48;;;;;;;;;;;;;;;;;;5060834;28;19916;-67
2023/08/18 13:19:14;;;;;;;;;;;;;;;;;;5070209;28;20007;-68
2023/08/18 13:21:40;;;;;;;;;;;;;;;;;;5065178;28;19913;-68
2023/08/18 13:24:05;;;;;;;;;;;;;;;;;;5065205;28;19921;-68
2023/08/18 13:26:32;;;;;;;;;;;;;;;;;;5064354;28;20335;-69
2023/08/18 13:28:58;;;;;;;;;;;;;;;;;;5067926;28;20003;-68
2023/08/18 13:31:24;;;;;;;;;;;;;;;;;;5061878;28;20027;-68
2023/08/18 13:33:50;;;;;;;;;;;;;;;;;;5066607;28;19962;-69
2023/08/18 13:36:16;;;;;;;;;;;;;;;;;;5063079;28;19957;-69
2023/08/18 13:38:41;;;;;;;;;;;;;;;;;;5063150;28;19973;-69
2023/08/18 13:41:07;;;;;;;;;;;;;;;;;;5064563;28;20364;-65
2023/08/18 13:43:33;;;;;;;;;;;;;;;;;;5061428;28;19923;-69
2023/08/18 13:45:59;;;;;;;;;;;;;;;;;;5054874;28;19916;-68
2023/08/18 13:48:25;;;;;;;;;;;;;;;;;;5056215;28;19989;-62
2023/08/18 13:50:51;;;;;;;;;;;;;;;;;;5066794;28;19919;-62
2023/08/18 13:53:17;;;;;;;;;;;;;;;;;;5069161;28;19944;-62
2023/08/18 13:55:43;;;;;;;;;;;;;;;;;;5064896;28;19916;-62
2023/08/18 13:58:09;;;;;;;;;;;;;;;;;;5067638;28;20360;-62
2023/08/18 14:00:35;;;;;;;;;;;;;;;;;;5062942;28;19912;-62
2023/08/18 14:03:01;;;;;;;;;;;;;;;;;;5060623;28;19931;-65
2023/08/18 14:05:27;;;;;;;;;;;;;;;;;;5060206;28;20356;-62
2023/08/18 14:07:53;;;;;;;;;;;;;;;;;;5064070;28;19955;-64
2023/08/18 14:10:18;;;;;;;;;;;;;;;;;;5057125;28;20296;-61
2023/08/18 14:12:44;;;;;;;;;;;;;;;;;;5058535;28;20361;-62
2023/08/18 14:15:10;;;;;;;;;;;;;;;;;;5056958;28;20384;-62
2023/08/18 14:17:36;;;;;;;;;;;;;;;;;;5061408;28;19955;-62
2023/08/18 14:20:06;;;;;;;;;;;;;;;;;;5054469;28;19920;-63
2023/08/18 14:22:32;;;;;;;;;;;;;;;;;;5058877;28;19928;-62
2023/08/18 14:24:58;;;;;;;;;;;;;;;;;;5067430;28;19987;-61
2023/08/18 14:27:24;;;;;;;;;;;;;;;;;;5065603;28;19973;-62
2023/08/18 14:29:50;;;;;;;;;;;;;;;;;;5066820;28;19917;-64
2023/08/18 14:32:16;;;;;;;;;;;;;;;;;;5056925;28;19913;-62
2023/08/18 14:34:45;;;;;;;;;;;;;;;;;;5067749;28;20382;-63
2023/08/18 14:37:11;;;;;;;;;;;;;;;;;;5052069;28;19921;-62
2023/08/18 14:39:37;;;;;;;;;;;;;;;;;;5063147;28;20387;-62
2023/08/18 14:42:03;;;;;;;;;;;;;;;;;;5066287;28;20003;-62
2023/08/18 14:44:29;;;;;;;;;;;;;;;;;;5072697;28;19913;-62
2023/08/18 14:46:55;;;;;;;;;;;;;;;;;;5071597;28;19959;-62
2023/08/18 14:49:21;;;;;;;;;;;;;;;;;;5066289;28;19916;-62
2023/08/18 14:51:47;;;;;;;;;;;;;;;;;;5066930;28;19934;-62
2023/08/18 14:54:13;;;;;;;;;;;;;;;;;;5074369;28;19908;-62
2023/08/18 14:56:39;;;;;;;;;;;;;;;;;;5066058;28;19952;-62
2023/08/18 14:59:04;;;;;;;;;;;;;;;;;;5061598;28;19960;-67
2023/08/18 15:01:33;;;;;;;;;;;;;;;;;;5063628;28;19916;-67
2023/08/18 15:03:59;;;;;;;;;;;;;;;;;;5062104;28;19921;-67
2023/08/18 15:06:25;;;;;;;;;;;;;;;;;;5062540;28;19963;-67
2023/08/18 15:08:51;;;;;;;;;;;;;;;;;;5061048;28;19952;-69
2023/08/18 15:11:17;;;;;;;;;;;;;;;;;;5084757;28;20380;-67
2023/08/18 15:13:43;;;;;;;;;;;;;;;;;;5062608;28;19959;-67
2023/08/18 15:16:09;;;;;;;;;;;;;;;;;;5065738;28;19935;-69
2023/08/18 15:18:35;;;;;;;;;;;;;;;;;;5057922;28;19967;-68
2023/08/18 15:21:01;;;;;;;;;;;;;;;;;;5060943;28;21325;-69
2023/08/18 15:23:29;;;;;;;;;;;;;;;;;;5058708;28;21346;-69
2023/08/18 15:25:55;;;;;;;;;;;;;;;;;;5070822;28;19952;-68
2023/08/18 15:28:21;;;;;;;;;;;;;;;;;;5055146;28;19923;-69
2023/08/18 15:30:47;;;;;;;;;;;;;;;;;;5053214;28;19957;-67
2023/08/18 15:33:13;;;;;;;;;;;;;;;;;;5061413;28;20292;-69
2023/08/18 15:35:39;;;;;;;;;;;;;;;;;;5055073;28;19916;-67
2023/08/18 15:38:05;;;;;;;;;;;;;;;;;;5056458;28;20011;-67
2023/08/18 15:40:30;;;;;;;;;;;;;;;;;;5053294;28;19923;-67
2023/08/18 15:42:56;;;;;;;;;;;;;;;;;;5055252;28;20307;-67
2023/08/18 15:45:22;;;;;;;;;;;;;;;;;;5056018;28;19963;-67
2023/08/18 15:47:48;;;;;;;;;;;;;;;;;;5050115;28;20354;-67
2023/08/18 15:50:14;;;;;;;;;;;;;;;;;;5055803;28;19962;-68
2023/08/18 15:52:40;;;;;;;;;;;;;;;;;;5062662;28;19957;-67
2023/08/18 15:55:06;;;;;;;;;;;;;;;;;;5058970;28;19965;-67
2023/08/18 15:57:32;;;;;;;;;;;;;;;;;;5052445;28;20424;-67
2023/08/18 15:59:58;;;;;;;;;;;;;;;;;;5057075;28;20062;-67
2023/08/18 16:02:24;;;;;;;;;;;;;;;;;;5067679;28;20036;-68
2023/08/18 16:04:49;;;;;;;;;;;;;;;;;;5063846;28;20299;-68
2023/08/18 16:07:15;;;;;;;;;;;;;;;;;;5066133;28;19916;-70
2023/08/18 16:09:41;;;;;;;;;;;;;;;;;;5063311;28;19999;-68
2023/08/18 16:12:08;;;;;;;;;;;;;;;;;;5067968;28;19956;-69
2023/08/18 16:14:33;;;;;;;;;;;;;;;;;;5068727;28;19955;-68
2023/08/18 16:16:59;;;;;;;;;;;;;;;;;;5072199;28;19959;-69
2023/08/18 16:19:25;;;;;;;;;;;;;;;;;;5066434;28;20000;-69
2023/08/18 16:21:51;;;;;;;;;;;;;;;;;;5066343;28;20050;-69
2023/08/18 16:24:17;;;;;;;;;;;;;;;;;;5065204;28;20047;-69
2023/08/18 16:26:43;;;;;;;;;;;;;;;;;;5068810;28;19959;-69
2023/08/18 16:29:09;;;;;;;;;;;;;;;;;;5051266;28;19996;-68
2023/08/18 16:31:35;;;;;;;;;;;;;;;;;;5060552;28;19956;-67
2023/08/18 16:34:01;;;;;;;;;;;;;;;;;;5054297;28;19927;-69
2023/08/18 16:36:27;;;;;;;;;;;;;;;;;;5058935;28;20443;-69